Pagrindinis puslapis
METAR-TAF:

METAR-TAF

Oro uostai :

Osornas, Čilė

platuma: 40-36-41S, ilguma: 73-03-38W, Aukštis: 57 m

Dabartinis oras

Ataskaita buvo paskelbta 1 valandą ir 7 minutes, ne 17:00 UTC
Vėjas 7 kt iš Pietų/Pietvakarių, svyruoja nuo Pietryčių ir Vakarų
Temperatūra 18°C
Drėgmė 45%
Slėgis 1021 hPa
Matomumas 10 km arba daugiau
Išsisklaidę debesys ne aukštis 4500 ft

METAR: SCJO 271700Z 20007KT 140V280 9999 SCT045 18/06 Q1021

Laikas: 15:07 (18:07 UTC)

Prognozė

Ataskaita buvo paskelbta 1 valandą ir 59 minutes, ne 16:08 UTC
Prognozė galioja nuo 27 metu 18 UTC su 28 metu 06 UTC
Vėjas 10 kt iš Pietų/Pietvakarių
Matomumas 10 km arba daugiau
Išsisklaidę debesys ne aukštis 4500 ft
Tapsmas
nuo 28 metu 02 UTC su 28 metu 04 UTC
Vėjas 2 kt nuo kintamojo kryptimis
Matomumas 10 km arba daugiau
nėra debesų žemiau 1500 m ir nėra kamuolinių lietaus debesų

TAF: SCJO 271608Z 2718/2806 21010KT 9999 SCT045 TX18/2718Z TN09/2806Z BECMG 2802/2804 VRB02KT CAVOK

Orai ataskaitas ir orų prognozės (METAR, TAF).

turimą stotys yra geltonos ir raudonos taškus žemėlapyje.

Perkelti pele per norėdami pamatyti stoties vardą.

Tada spustelėkite, norėdami matyti oro stebėjimo ir prognozės.

Norėdami pakeisti žemėlapį: spustelėkite ant žalios mygtukų su juodo kryžiaus žemyn,; žalią mygtuką su brūkšneliu, jei norite nutolinti; arba žalių rodyklių gretimoms žemėlapius.


METAR-TAF: